sensor_id;sensor_type;location;lat;lon;timestamp;temperature;humidity
9157;DHT22;4613;48.392;9.998;2023-02-28T00:00:59;-1.10;99.90
9157;DHT22;4613;48.392;9.998;2023-02-28T00:03:49;-1.00;99.90
9157;DHT22;4613;48.392;9.998;2023-02-28T00:06:38;-1.00;99.90
9157;DHT22;4613;48.392;9.998;2023-02-28T00:09:27;-1.00;99.90
9157;DHT22;4613;48.392;9.998;2023-02-28T00:12:16;-1.00;99.90
9157;DHT22;4613;48.392;9.998;2023-02-28T00:15:07;-1.00;99.90
9157;DHT22;4613;48.392;9.998;2023-02-28T00:17:57;-1.00;99.90
9157;DHT22;4613;48.392;9.998;2023-02-28T00:20:47;-1.00;99.90
9157;DHT22;4613;48.392;9.998;2023-02-28T00:23:36;-1.00;99.90
9157;DHT22;4613;48.392;9.998;2023-02-28T00:26:25;-0.90;99.90
9157;DHT22;4613;48.392;9.998;2023-02-28T00:29:15;-0.90;99.90
9157;DHT22;4613;48.392;9.998;2023-02-28T00:32:07;-0.90;99.90
9157;DHT22;4613;48.392;9.998;2023-02-28T00:34:56;-1.00;99.90
9157;DHT22;4613;48.392;9.998;2023-02-28T00:37:45;-1.00;99.90
9157;DHT22;4613;48.392;9.998;2023-02-28T00:40:36;-1.00;99.90
9157;DHT22;4613;48.392;9.998;2023-02-28T00:43:26;-1.00;99.90
9157;DHT22;4613;48.392;9.998;2023-02-28T00:46:15;-1.00;99.90
9157;DHT22;4613;48.392;9.998;2023-02-28T00:49:05;-0.90;99.90
9157;DHT22;4613;48.392;9.998;2023-02-28T00:51:54;-0.90;99.90
9157;DHT22;4613;48.392;9.998;2023-02-28T00:54:44;-1.00;99.90
9157;DHT22;4613;48.392;9.998;2023-02-28T00:57:33;-1.00;99.90
9157;DHT22;4613;48.392;9.998;2023-02-28T01:00:23;-0.90;99.90
9157;DHT22;4613;48.392;9.998;2023-02-28T01:03:13;-0.90;99.90
9157;DHT22;4613;48.392;9.998;2023-02-28T01:06:03;-1.10;99.90
9157;DHT22;4613;48.392;9.998;2023-02-28T01:08:52;-1.00;99.90
9157;DHT22;4613;48.392;9.998;2023-02-28T01:11:42;-1.00;99.90
9157;DHT22;4613;48.392;9.998;2023-02-28T01:14:33;-1.00;99.90
9157;DHT22;4613;48.392;9.998;2023-02-28T01:17:23;-1.00;99.90
9157;DHT22;4613;48.392;9.998;2023-02-28T01:20:12;-1.00;99.90
9157;DHT22;4613;48.392;9.998;2023-02-28T01:23:01;-1.00;99.90
9157;DHT22;4613;48.392;9.998;2023-02-28T01:25:51;-1.00;99.90
9157;DHT22;4613;48.392;9.998;2023-02-28T01:28:42;-0.90;99.90
9157;DHT22;4613;48.392;9.998;2023-02-28T01:31:32;-1.00;99.90
9157;DHT22;4613;48.392;9.998;2023-02-28T01:34:21;-1.00;99.90
9157;DHT22;4613;48.392;9.998;2023-02-28T01:37:11;-0.90;99.90
9157;DHT22;4613;48.392;9.998;2023-02-28T01:40:00;-1.10;99.90
9157;DHT22;4613;48.392;9.998;2023-02-28T01:42:49;-1.00;99.90
9157;DHT22;4613;48.392;9.998;2023-02-28T01:45:39;-0.90;99.90
9157;DHT22;4613;48.392;9.998;2023-02-28T01:48:32;-1.00;99.90
9157;DHT22;4613;48.392;9.998;2023-02-28T01:51:38;-0.90;99.90
9157;DHT22;4613;48.392;9.998;2023-02-28T01:54:31;-1.00;99.90
9157;DHT22;4613;48.392;9.998;2023-02-28T01:57:30;-1.00;99.90
9157;DHT22;4613;48.392;9.998;2023-02-28T02:00:29;-1.00;99.90
9157;DHT22;4613;48.392;9.998;2023-02-28T02:03:20;-0.90;99.90
9157;DHT22;4613;48.392;9.998;2023-02-28T02:06:10;-0.90;99.90
9157;DHT22;4613;48.392;9.998;2023-02-28T02:08:59;-1.00;99.90
9157;DHT22;4613;48.392;9.998;2023-02-28T02:11:48;-1.10;99.90
9157;DHT22;4613;48.392;9.998;2023-02-28T02:15:01;-1.10;99.90
9157;DHT22;4613;48.392;9.998;2023-02-28T02:17:59;-1.10;99.90
9157;DHT22;4613;48.392;9.998;2023-02-28T02:21:58;-1.00;99.90
9157;DHT22;4613;48.392;9.998;2023-02-28T02:27:49;-1.10;99.90
9157;DHT22;4613;48.392;9.998;2023-02-28T02:34:31;-1.10;99.90
9157;DHT22;4613;48.392;9.998;2023-02-28T02:40:37;-1.10;99.90
9157;DHT22;4613;48.392;9.998;2023-02-28T02:43:36;-1.10;99.90
9157;DHT22;4613;48.392;9.998;2023-02-28T02:46:31;-1.20;99.90
9157;DHT22;4613;48.392;9.998;2023-02-28T02:49:25;-1.00;99.90
9157;DHT22;4613;48.392;9.998;2023-02-28T02:52:20;-1.10;99.90
9157;DHT22;4613;48.392;9.998;2023-02-28T02:55:13;-1.20;99.90
9157;DHT22;4613;48.392;9.998;2023-02-28T02:58:07;-1.20;99.90
9157;DHT22;4613;48.392;9.998;2023-02-28T03:01:00;-1.10;99.90
9157;DHT22;4613;48.392;9.998;2023-02-28T03:03:50;-1.00;99.90
9157;DHT22;4613;48.392;9.998;2023-02-28T03:06:41;-1.10;99.90
9157;DHT22;4613;48.392;9.998;2023-02-28T03:09:33;-1.10;99.90
9157;DHT22;4613;48.392;9.998;2023-02-28T03:12:40;-1.00;99.90
9157;DHT22;4613;48.392;9.998;2023-02-28T03:16:14;-1.10;99.90
9157;DHT22;4613;48.392;9.998;2023-02-28T03:19:23;-1.20;99.90
9157;DHT22;4613;48.392;9.998;2023-02-28T03:28:46;-1.10;99.90
9157;DHT22;4613;48.392;9.998;2023-02-28T03:31:45;-1.20;99.90
9157;DHT22;4613;48.392;9.998;2023-02-28T03:34:39;-1.20;99.90
9157;DHT22;4613;48.392;9.998;2023-02-28T03:37:34;-1.20;99.90
9157;DHT22;4613;48.392;9.998;2023-02-28T03:40:28;-1.20;99.90
9157;DHT22;4613;48.392;9.998;2023-02-28T03:43:23;-1.10;99.90
9157;DHT22;4613;48.392;9.998;2023-02-28T03:46:18;-1.10;99.90
9157;DHT22;4613;48.392;9.998;2023-02-28T03:49:24;-1.00;99.90
9157;DHT22;4613;48.392;9.998;2023-02-28T03:52:18;-1.10;99.90
9157;DHT22;4613;48.392;9.998;2023-02-28T03:55:11;-1.20;99.90
9157;DHT22;4613;48.392;9.998;2023-02-28T03:58:09;-1.10;99.90
9157;DHT22;4613;48.392;9.998;2023-02-28T04:01:08;-1.10;99.90
9157;DHT22;4613;48.392;9.998;2023-02-28T04:03:58;-1.10;99.90
9157;DHT22;4613;48.392;9.998;2023-02-28T04:06:50;-1.10;99.90
9157;DHT22;4613;48.392;9.998;2023-02-28T04:09:41;-1.10;99.90
9157;DHT22;4613;48.392;9.998;2023-02-28T04:12:30;-1.00;99.90
9157;DHT22;4613;48.392;9.998;2023-02-28T04:15:20;-1.20;99.90
9157;DHT22;4613;48.392;9.998;2023-02-28T04:18:11;-1.10;99.90
9157;DHT22;4613;48.392;9.998;2023-02-28T04:21:00;-1.10;99.90
9157;DHT22;4613;48.392;9.998;2023-02-28T04:23:49;-1.20;99.90
9157;DHT22;4613;48.392;9.998;2023-02-28T04:26:39;-1.10;99.90
9157;DHT22;4613;48.392;9.998;2023-02-28T04:29:31;-1.00;99.90
9157;DHT22;4613;48.392;9.998;2023-02-28T04:32:23;-1.00;99.90
9157;DHT22;4613;48.392;9.998;2023-02-28T04:35:14;-1.10;99.90
9157;DHT22;4613;48.392;9.998;2023-02-28T04:38:03;-1.00;99.90
9157;DHT22;4613;48.392;9.998;2023-02-28T04:40:56;-1.10;99.90
9157;DHT22;4613;48.392;9.998;2023-02-28T04:43:46;-1.20;99.90
9157;DHT22;4613;48.392;9.998;2023-02-28T04:46:36;-1.10;99.90
9157;DHT22;4613;48.392;9.998;2023-02-28T04:49:26;-1.10;99.90
9157;DHT22;4613;48.392;9.998;2023-02-28T04:52:16;-1.10;99.90
9157;DHT22;4613;48.392;9.998;2023-02-28T04:55:05;-1.00;99.90
9157;DHT22;4613;48.392;9.998;2023-02-28T04:57:54;-1.10;99.90
9157;DHT22;4613;48.392;9.998;2023-02-28T05:00:44;-1.00;99.90
9157;DHT22;4613;48.392;9.998;2023-02-28T05:03:34;-1.00;99.90
9157;DHT22;4613;48.392;9.998;2023-02-28T05:06:26;-1.10;99.90
9157;DHT22;4613;48.392;9.998;2023-02-28T05:09:16;-1.00;99.90
9157;DHT22;4613;48.392;9.998;2023-02-28T05:12:05;-1.10;99.90
9157;DHT22;4613;48.392;9.998;2023-02-28T05:14:54;-1.10;99.90
9157;DHT22;4613;48.392;9.998;2023-02-28T05:17:43;-1.10;99.90
9157;DHT22;4613;48.392;9.998;2023-02-28T05:20:33;-1.00;99.90
9157;DHT22;4613;48.392;9.998;2023-02-28T05:23:23;-1.00;99.90
9157;DHT22;4613;48.392;9.998;2023-02-28T05:26:14;-1.00;99.90
9157;DHT22;4613;48.392;9.998;2023-02-28T05:29:03;-1.10;99.90
9157;DHT22;4613;48.392;9.998;2023-02-28T05:31:52;-1.10;99.90
9157;DHT22;4613;48.392;9.998;2023-02-28T05:34:42;-1.10;99.90
9157;DHT22;4613;48.392;9.998;2023-02-28T05:37:31;-1.10;99.90
9157;DHT22;4613;48.392;9.998;2023-02-28T05:40:20;-1.10;99.90
9157;DHT22;4613;48.392;9.998;2023-02-28T05:43:10;-1.10;99.90
9157;DHT22;4613;48.392;9.998;2023-02-28T05:46:03;-1.10;99.90
9157;DHT22;4613;48.392;9.998;2023-02-28T05:48:52;-1.20;99.90
9157;DHT22;4613;48.392;9.998;2023-02-28T05:51:42;-1.10;99.90
9157;DHT22;4613;48.392;9.998;2023-02-28T05:54:32;-1.10;99.90
9157;DHT22;4613;48.392;9.998;2023-02-28T05:57:22;-1.10;99.90
9157;DHT22;4613;48.392;9.998;2023-02-28T06:00:12;-1.10;99.90
9157;DHT22;4613;48.392;9.998;2023-02-28T06:03:04;-1.30;99.90
9157;DHT22;4613;48.392;9.998;2023-02-28T06:05:53;-1.20;99.90
9157;DHT22;4613;48.392;9.998;2023-02-28T06:08:42;-1.10;99.90
9157;DHT22;4613;48.392;9.998;2023-02-28T06:11:33;-1.20;99.90
9157;DHT22;4613;48.392;9.998;2023-02-28T06:14:23;-1.20;99.90
9157;DHT22;4613;48.392;9.998;2023-02-28T06:17:12;-1.20;99.90
9157;DHT22;4613;48.392;9.998;2023-02-28T06:20:02;-1.20;99.90
9157;DHT22;4613;48.392;9.998;2023-02-28T06:22:51;-1.20;99.90
9157;DHT22;4613;48.392;9.998;2023-02-28T06:25:45;-1.10;99.90
9157;DHT22;4613;48.392;9.998;2023-02-28T06:28:35;-1.20;99.90
9157;DHT22;4613;48.392;9.998;2023-02-28T06:31:25;-1.20;99.90
9157;DHT22;4613;48.392;9.998;2023-02-28T06:34:14;-1.20;99.90
9157;DHT22;4613;48.392;9.998;2023-02-28T06:37:04;-1.30;99.90
9157;DHT22;4613;48.392;9.998;2023-02-28T06:39:54;-1.20;99.90
9157;DHT22;4613;48.392;9.998;2023-02-28T06:42:44;-1.20;99.90
9157;DHT22;4613;48.392;9.998;2023-02-28T06:45:33;-1.30;99.90
9157;DHT22;4613;48.392;9.998;2023-02-28T06:48:26;-1.20;99.90
9157;DHT22;4613;48.392;9.998;2023-02-28T06:51:19;-1.20;99.90
9157;DHT22;4613;48.392;9.998;2023-02-28T06:54:12;-1.30;99.90
9157;DHT22;4613;48.392;9.998;2023-02-28T06:57:01;-1.30;99.90
9157;DHT22;4613;48.392;9.998;2023-02-28T06:59:51;-1.20;99.90
9157;DHT22;4613;48.392;9.998;2023-02-28T07:02:40;-1.20;99.90
9157;DHT22;4613;48.392;9.998;2023-02-28T07:05:29;-1.30;99.90
9157;DHT22;4613;48.392;9.998;2023-02-28T07:08:18;-1.20;99.90
9157;DHT22;4613;48.392;9.998;2023-02-28T07:11:07;-1.20;99.90
9157;DHT22;4613;48.392;9.998;2023-02-28T07:13:57;-1.30;99.90
9157;DHT22;4613;48.392;9.998;2023-02-28T07:16:46;-1.30;99.90
9157;DHT22;4613;48.392;9.998;2023-02-28T07:19:35;-1.40;99.90
9157;DHT22;4613;48.392;9.998;2023-02-28T07:22:25;-1.40;99.90
9157;DHT22;4613;48.392;9.998;2023-02-28T07:25:15;-1.30;99.90
9157;DHT22;4613;48.392;9.998;2023-02-28T07:28:04;-1.20;99.90
9157;DHT22;4613;48.392;9.998;2023-02-28T07:30:54;-1.10;99.90
9157;DHT22;4613;48.392;9.998;2023-02-28T07:33:44;-1.20;99.90
9157;DHT22;4613;48.392;9.998;2023-02-28T07:36:33;-1.30;99.90
9157;DHT22;4613;48.392;9.998;2023-02-28T07:39:22;-1.30;99.90
9157;DHT22;4613;48.392;9.998;2023-02-28T07:42:12;-1.30;99.90
9157;DHT22;4613;48.392;9.998;2023-02-28T07:45:03;-1.20;99.90
9157;DHT22;4613;48.392;9.998;2023-02-28T07:47:53;-1.20;99.90
9157;DHT22;4613;48.392;9.998;2023-02-28T07:50:42;-1.20;99.90
9157;DHT22;4613;48.392;9.998;2023-02-28T07:53:32;-1.20;99.90
9157;DHT22;4613;48.392;9.998;2023-02-28T07:56:22;-1.30;99.90
9157;DHT22;4613;48.392;9.998;2023-02-28T07:59:11;-1.20;99.90
9157;DHT22;4613;48.392;9.998;2023-02-28T08:02:01;-1.20;99.90
9157;DHT22;4613;48.392;9.998;2023-02-28T08:04:51;-1.10;99.90
9157;DHT22;4613;48.392;9.998;2023-02-28T08:07:41;-1.20;99.90
9157;DHT22;4613;48.392;9.998;2023-02-28T08:10:30;-1.30;99.90
9157;DHT22;4613;48.392;9.998;2023-02-28T08:13:20;-1.10;99.90
9157;DHT22;4613;48.392;9.998;2023-02-28T08:16:09;-1.10;99.90
9157;DHT22;4613;48.392;9.998;2023-02-28T08:19:00;-1.10;99.90
9157;DHT22;4613;48.392;9.998;2023-02-28T08:21:50;-0.90;99.90
9157;DHT22;4613;48.392;9.998;2023-02-28T08:24:41;-1.20;99.90
9157;DHT22;4613;48.392;9.998;2023-02-28T08:27:32;-1.10;99.90
9157;DHT22;4613;48.392;9.998;2023-02-28T08:30:22;-1.10;99.90
9157;DHT22;4613;48.392;9.998;2023-02-28T08:33:11;-1.30;99.90
9157;DHT22;4613;48.392;9.998;2023-02-28T08:36:02;-1.20;99.90
9157;DHT22;4613;48.392;9.998;2023-02-28T08:38:51;-1.10;99.90
9157;DHT22;4613;48.392;9.998;2023-02-28T08:42:06;-1.10;99.90
9157;DHT22;4613;48.392;9.998;2023-02-28T08:44:55;-1.20;99.90
9157;DHT22;4613;48.392;9.998;2023-02-28T08:47:46;-1.20;99.90
9157;DHT22;4613;48.392;9.998;2023-02-28T08:50:35;-1.20;99.90
9157;DHT22;4613;48.392;9.998;2023-02-28T08:53:25;-1.10;99.90
9157;DHT22;4613;48.392;9.998;2023-02-28T08:56:16;-1.20;99.90
9157;DHT22;4613;48.392;9.998;2023-02-28T08:59:09;-1.10;99.90
9157;DHT22;4613;48.392;9.998;2023-02-28T09:01:58;-1.10;99.90
9157;DHT22;4613;48.392;9.998;2023-02-28T09:04:47;-1.10;99.90
9157;DHT22;4613;48.392;9.998;2023-02-28T09:07:37;-1.20;99.90
9157;DHT22;4613;48.392;9.998;2023-02-28T09:10:26;-1.10;99.90
9157;DHT22;4613;48.392;9.998;2023-02-28T09:13:15;-1.10;99.90
9157;DHT22;4613;48.392;9.998;2023-02-28T09:16:07;-1.20;99.90
9157;DHT22;4613;48.392;9.998;2023-02-28T09:18:58;-1.10;99.90
9157;DHT22;4613;48.392;9.998;2023-02-28T09:21:48;-0.90;99.90
9157;DHT22;4613;48.392;9.998;2023-02-28T09:24:38;-0.80;99.90
9157;DHT22;4613;48.392;9.998;2023-02-28T09:27:27;-0.80;99.90
9157;DHT22;4613;48.392;9.998;2023-02-28T09:30:17;-0.90;99.90
9157;DHT22;4613;48.392;9.998;2023-02-28T09:33:07;-1.00;99.90
9157;DHT22;4613;48.392;9.998;2023-02-28T09:36:00;-0.90;99.90
9157;DHT22;4613;48.392;9.998;2023-02-28T09:38:50;-0.80;99.90
9157;DHT22;4613;48.392;9.998;2023-02-28T09:41:44;-0.70;99.90
9157;DHT22;4613;48.392;9.998;2023-02-28T09:44:43;-0.80;99.90
9157;DHT22;4613;48.392;9.998;2023-02-28T09:47:39;-0.50;99.90
9157;DHT22;4613;48.392;9.998;2023-02-28T09:50:34;-0.60;99.90
9157;DHT22;4613;48.392;9.998;2023-02-28T09:53:31;-0.40;99.90
9157;DHT22;4613;48.392;9.998;2023-02-28T10:02:58;-0.50;99.90
9157;DHT22;4613;48.392;9.998;2023-02-28T10:06:19;-0.40;99.90
9157;DHT22;4613;48.392;9.998;2023-02-28T10:09:16;-0.40;99.90
9157;DHT22;4613;48.392;9.998;2023-02-28T10:12:09;-0.20;99.90
9157;DHT22;4613;48.392;9.998;2023-02-28T10:15:00;-0.20;99.90
9157;DHT22;4613;48.392;9.998;2023-02-28T10:17:54;-0.20;99.90
9157;DHT22;4613;48.392;9.998;2023-02-28T10:20:46;-0.30;99.90
9157;DHT22;4613;48.392;9.998;2023-02-28T10:23:38;-0.30;99.90
9157;DHT22;4613;48.392;9.998;2023-02-28T10:26:29;-0.10;99.90
9157;DHT22;4613;48.392;9.998;2023-02-28T10:29:20;0.10;99.90
9157;DHT22;4613;48.392;9.998;2023-02-28T10:32:11;0.10;99.90
9157;DHT22;4613;48.392;9.998;2023-02-28T10:35:22;0.20;99.90
9157;DHT22;4613;48.392;9.998;2023-02-28T10:38:24;0.30;99.90
9157;DHT22;4613;48.392;9.998;2023-02-28T10:41:26;0.40;99.90
9157;DHT22;4613;48.392;9.998;2023-02-28T10:44:23;0.50;99.90
9157;DHT22;4613;48.392;9.998;2023-02-28T10:47:17;0.50;99.90
9157;DHT22;4613;48.392;9.998;2023-02-28T10:56:17;1.30;99.90
9157;DHT22;4613;48.392;9.998;2023-02-28T10:59:31;1.20;99.90
9157;DHT22;4613;48.392;9.998;2023-02-28T11:02:36;1.10;99.90
9157;DHT22;4613;48.392;9.998;2023-02-28T11:05:32;1.20;99.90
9157;DHT22;4613;48.392;9.998;2023-02-28T11:08:23;1.20;99.90
9157;DHT22;4613;48.392;9.998;2023-02-28T11:11:14;0.90;99.90
9157;DHT22;4613;48.392;9.998;2023-02-28T11:14:04;1.50;99.90
9157;DHT22;4613;48.392;9.998;2023-02-28T11:17:00;1.90;99.90
9157;DHT22;4613;48.392;9.998;2023-02-28T11:19:53;2.20;99.90
9157;DHT22;4613;48.392;9.998;2023-02-28T11:22:46;2.60;99.90
9157;DHT22;4613;48.392;9.998;2023-02-28T11:25:38;3.00;99.90
9157;DHT22;4613;48.392;9.998;2023-02-28T11:28:32;2.40;99.90
9157;DHT22;4613;48.392;9.998;2023-02-28T11:31:22;2.50;99.90
9157;DHT22;4613;48.392;9.998;2023-02-28T11:34:26;2.40;99.90
9157;DHT22;4613;48.392;9.998;2023-02-28T11:37:18;2.40;99.90
9157;DHT22;4613;48.392;9.998;2023-02-28T11:40:18;2.60;99.90
9157;DHT22;4613;48.392;9.998;2023-02-28T11:43:24;2.70;99.90
9157;DHT22;4613;48.392;9.998;2023-02-28T11:46:23;2.70;99.90
9157;DHT22;4613;48.392;9.998;2023-02-28T11:53:01;2.60;99.90
9157;DHT22;4613;48.392;9.998;2023-02-28T11:56:14;2.70;99.90
9157;DHT22;4613;48.392;9.998;2023-02-28T11:59:24;3.30;99.90
9157;DHT22;4613;48.392;9.998;2023-02-28T12:06:05;3.30;99.90
9157;DHT22;4613;48.392;9.998;2023-02-28T12:12:29;3.10;99.90
9157;DHT22;4613;48.392;9.998;2023-02-28T12:24:39;4.00;99.90
9157;DHT22;4613;48.392;9.998;2023-02-28T12:27:36;3.90;99.60
9157;DHT22;4613;48.392;9.998;2023-02-28T12:30:34;3.80;99.90
9157;DHT22;4613;48.392;9.998;2023-02-28T12:33:31;4.20;99.60
9157;DHT22;4613;48.392;9.998;2023-02-28T12:36:22;3.30;99.50
9157;DHT22;4613;48.392;9.998;2023-02-28T12:39:27;3.40;99.80
9157;DHT22;4613;48.392;9.998;2023-02-28T12:42:30;3.70;99.80
9157;DHT22;4613;48.392;9.998;2023-02-28T12:45:23;4.00;99.80
9157;DHT22;4613;48.392;9.998;2023-02-28T12:48:50;4.30;99.50
9157;DHT22;4613;48.392;9.998;2023-02-28T12:51:32;4.70;99.40
9157;DHT22;4613;48.392;9.998;2023-02-28T12:54:47;4.10;99.00
9157;DHT22;4613;48.392;9.998;2023-02-28T13:00:57;3.80;99.70
9157;DHT22;4613;48.392;9.998;2023-02-28T13:04:08;3.70;99.50
9157;DHT22;4613;48.392;9.998;2023-02-28T13:07:29;3.70;99.00
9157;DHT22;4613;48.392;9.998;2023-02-28T13:10:20;3.60;99.20
9157;DHT22;4613;48.392;9.998;2023-02-28T13:13:18;3.80;99.10
9157;DHT22;4613;48.392;9.998;2023-02-28T13:16:09;3.60;99.30
9157;DHT22;4613;48.392;9.998;2023-02-28T13:19:10;3.90;99.40
9157;DHT22;4613;48.392;9.998;2023-02-28T13:22:01;4.30;99.10
9157;DHT22;4613;48.392;9.998;2023-02-28T13:27:43;4.10;98.90
9157;DHT22;4613;48.392;9.998;2023-02-28T13:36:39;3.90;98.90
9157;DHT22;4613;48.392;9.998;2023-02-28T13:45:27;4.40;99.00
9157;DHT22;4613;48.392;9.998;2023-02-28T13:48:24;4.60;98.60
9157;DHT22;4613;48.392;9.998;2023-02-28T13:51:49;4.40;98.90
9157;DHT22;4613;48.392;9.998;2023-02-28T13:58:06;4.20;98.50
9157;DHT22;4613;48.392;9.998;2023-02-28T14:04:39;4.00;98.60
9157;DHT22;4613;48.392;9.998;2023-02-28T14:07:46;4.00;98.80
9157;DHT22;4613;48.392;9.998;2023-02-28T14:10:41;4.00;98.80
9157;DHT22;4613;48.392;9.998;2023-02-28T14:13:47;4.10;99.00
9157;DHT22;4613;48.392;9.998;2023-02-28T14:16:46;4.10;98.40
9157;DHT22;4613;48.392;9.998;2023-02-28T14:19:37;3.90;98.60
9157;DHT22;4613;48.392;9.998;2023-02-28T14:31:33;4.00;98.80
9157;DHT22;4613;48.392;9.998;2023-02-28T14:34:59;3.90;98.70
9157;DHT22;4613;48.392;9.998;2023-02-28T14:37:51;3.70;98.50
9157;DHT22;4613;48.392;9.998;2023-02-28T14:40:42;3.60;98.60
9157;DHT22;4613;48.392;9.998;2023-02-28T14:43:32;3.70;98.60
9157;DHT22;4613;48.392;9.998;2023-02-28T14:46:41;3.80;98.70
9157;DHT22;4613;48.392;9.998;2023-02-28T14:49:35;3.80;98.60
9157;DHT22;4613;48.392;9.998;2023-02-28T14:52:30;3.80;98.50
9157;DHT22;4613;48.392;9.998;2023-02-28T14:55:46;3.80;98.60
9157;DHT22;4613;48.392;9.998;2023-02-28T14:58:34;3.60;98.40
9157;DHT22;4613;48.392;9.998;2023-02-28T15:01:25;3.70;98.70
9157;DHT22;4613;48.392;9.998;2023-02-28T15:04:24;3.70;98.60
9157;DHT22;4613;48.392;9.998;2023-02-28T15:07:14;3.80;98.60
9157;DHT22;4613;48.392;9.998;2023-02-28T15:10:20;3.90;98.70
9157;DHT22;4613;48.392;9.998;2023-02-28T15:13:14;4.00;98.60
9157;DHT22;4613;48.392;9.998;2023-02-28T15:16:17;3.90;98.10
9157;DHT22;4613;48.392;9.998;2023-02-28T15:22:17;3.70;98.50
9157;DHT22;4613;48.392;9.998;2023-02-28T15:25:09;3.70;98.30
9157;DHT22;4613;48.392;9.998;2023-02-28T15:28:02;3.80;98.10
9157;DHT22;4613;48.392;9.998;2023-02-28T15:31:01;3.80;98.20
9157;DHT22;4613;48.392;9.998;2023-02-28T15:34:02;3.80;98.30
9157;DHT22;4613;48.392;9.998;2023-02-28T15:36:52;3.60;98.20
9157;DHT22;4613;48.392;9.998;2023-02-28T15:39:45;3.60;98.50
9157;DHT22;4613;48.392;9.998;2023-02-28T15:42:34;3.60;98.50
9157;DHT22;4613;48.392;9.998;2023-02-28T15:45:52;3.60;98.40
9157;DHT22;4613;48.392;9.998;2023-02-28T15:48:55;3.70;98.40
9157;DHT22;4613;48.392;9.998;2023-02-28T15:51:45;3.70;98.30
9157;DHT22;4613;48.392;9.998;2023-02-28T15:54:35;3.60;98.20
9157;DHT22;4613;48.392;9.998;2023-02-28T15:57:26;3.50;98.30
9157;DHT22;4613;48.392;9.998;2023-02-28T16:00:21;3.60;98.20
9157;DHT22;4613;48.392;9.998;2023-02-28T16:03:32;3.60;98.20
9157;DHT22;4613;48.392;9.998;2023-02-28T16:06:46;3.60;98.40
9157;DHT22;4613;48.392;9.998;2023-02-28T16:09:37;3.40;98.50
9157;DHT22;4613;48.392;9.998;2023-02-28T16:12:29;3.40;98.70
9157;DHT22;4613;48.392;9.998;2023-02-28T16:15:23;3.40;98.70
9157;DHT22;4613;48.392;9.998;2023-02-28T16:18:14;3.40;98.80
9157;DHT22;4613;48.392;9.998;2023-02-28T16:21:04;3.20;98.60
9157;DHT22;4613;48.392;9.998;2023-02-28T16:23:53;3.60;99.90
9157;DHT22;4613;48.392;9.998;2023-02-28T16:26:46;3.70;99.90
9157;DHT22;4613;48.392;9.998;2023-02-28T16:29:37;3.80;98.80
9157;DHT22;4613;48.392;9.998;2023-02-28T16:32:27;3.80;99.70
9157;DHT22;4613;48.392;9.998;2023-02-28T16:35:16;3.60;99.30
9157;DHT22;4613;48.392;9.998;2023-02-28T16:38:07;3.40;98.80
9157;DHT22;4613;48.392;9.998;2023-02-28T16:40:59;3.20;98.70
9157;DHT22;4613;48.392;9.998;2023-02-28T16:43:51;3.10;98.80
9157;DHT22;4613;48.392;9.998;2023-02-28T16:46:42;3.10;99.00
9157;DHT22;4613;48.392;9.998;2023-02-28T16:49:33;3.10;99.00
9157;DHT22;4613;48.392;9.998;2023-02-28T16:52:22;3.00;99.10
9157;DHT22;4613;48.392;9.998;2023-02-28T16:55:12;3.00;99.20
9157;DHT22;4613;48.392;9.998;2023-02-28T16:58:03;2.90;99.10
9157;DHT22;4613;48.392;9.998;2023-02-28T17:00:52;2.90;99.10
9157;DHT22;4613;48.392;9.998;2023-02-28T17:03:42;2.80;99.20
9157;DHT22;4613;48.392;9.998;2023-02-28T17:06:31;2.80;99.30
9157;DHT22;4613;48.392;9.998;2023-02-28T17:09:22;2.80;99.30
9157;DHT22;4613;48.392;9.998;2023-02-28T17:12:12;2.80;99.40
9157;DHT22;4613;48.392;9.998;2023-02-28T17:15:02;2.70;99.50
9157;DHT22;4613;48.392;9.998;2023-02-28T17:17:51;2.70;99.70
9157;DHT22;4613;48.392;9.998;2023-02-28T17:20:42;2.70;99.90
9157;DHT22;4613;48.392;9.998;2023-02-28T17:23:31;2.70;99.90
9157;DHT22;4613;48.392;9.998;2023-02-28T17:26:22;2.70;99.90
9157;DHT22;4613;48.392;9.998;2023-02-28T17:29:18;2.70;99.90
9157;DHT22;4613;48.392;9.998;2023-02-28T17:32:08;2.70;99.90
9157;DHT22;4613;48.392;9.998;2023-02-28T17:34:57;2.70;99.90
9157;DHT22;4613;48.392;9.998;2023-02-28T17:37:46;2.70;99.90
9157;DHT22;4613;48.392;9.998;2023-02-28T17:40:38;2.50;99.90
9157;DHT22;4613;48.392;9.998;2023-02-28T17:43:28;2.50;99.90
9157;DHT22;4613;48.392;9.998;2023-02-28T17:46:20;2.40;99.90
9157;DHT22;4613;48.392;9.998;2023-02-28T17:49:10;2.40;99.90
9157;DHT22;4613;48.392;9.998;2023-02-28T17:51:59;2.30;99.90
9157;DHT22;4613;48.392;9.998;2023-02-28T17:54:49;2.30;99.90
9157;DHT22;4613;48.392;9.998;2023-02-28T17:57:38;2.20;99.90
9157;DHT22;4613;48.392;9.998;2023-02-28T18:00:28;2.30;99.90
9157;DHT22;4613;48.392;9.998;2023-02-28T18:03:17;2.20;99.90
9157;DHT22;4613;48.392;9.998;2023-02-28T18:06:17;2.20;99.90
9157;DHT22;4613;48.392;9.998;2023-02-28T18:09:08;2.10;99.90
9157;DHT22;4613;48.392;9.998;2023-02-28T18:11:58;2.20;99.90
9157;DHT22;4613;48.392;9.998;2023-02-28T18:14:46;2.10;99.90
9157;DHT22;4613;48.392;9.998;2023-02-28T18:17:36;2.10;99.90
9157;DHT22;4613;48.392;9.998;2023-02-28T18:20:25;2.10;99.90
9157;DHT22;4613;48.392;9.998;2023-02-28T18:23:17;2.10;99.90
9157;DHT22;4613;48.392;9.998;2023-02-28T18:26:07;2.10;99.90
9157;DHT22;4613;48.392;9.998;2023-02-28T18:29:02;2.00;99.90
9157;DHT22;4613;48.392;9.998;2023-02-28T18:31:53;2.00;99.90
9157;DHT22;4613;48.392;9.998;2023-02-28T18:34:42;2.00;99.90
9157;DHT22;4613;48.392;9.998;2023-02-28T18:37:33;1.90;99.90
9157;DHT22;4613;48.392;9.998;2023-02-28T18:40:23;2.00;99.90
9157;DHT22;4613;48.392;9.998;2023-02-28T18:43:12;1.90;99.90
9157;DHT22;4613;48.392;9.998;2023-02-28T18:46:10;1.90;99.90
9157;DHT22;4613;48.392;9.998;2023-02-28T18:49:00;1.90;99.90
9157;DHT22;4613;48.392;9.998;2023-02-28T18:51:50;1.90;99.90
9157;DHT22;4613;48.392;9.998;2023-02-28T18:54:39;1.90;99.90
9157;DHT22;4613;48.392;9.998;2023-02-28T18:57:28;1.80;99.90
9157;DHT22;4613;48.392;9.998;2023-02-28T19:00:18;1.90;99.90
9157;DHT22;4613;48.392;9.998;2023-02-28T19:03:11;1.80;99.90
9157;DHT22;4613;48.392;9.998;2023-02-28T19:06:00;1.80;99.90
9157;DHT22;4613;48.392;9.998;2023-02-28T19:08:57;1.80;99.90
9157;DHT22;4613;48.392;9.998;2023-02-28T19:11:47;1.70;99.90
9157;DHT22;4613;48.392;9.998;2023-02-28T19:14:36;1.70;99.90
9157;DHT22;4613;48.392;9.998;2023-02-28T19:17:25;1.70;99.90
9157;DHT22;4613;48.392;9.998;2023-02-28T19:20:15;1.70;99.90
9157;DHT22;4613;48.392;9.998;2023-02-28T19:23:07;1.60;99.90
9157;DHT22;4613;48.392;9.998;2023-02-28T19:25:58;1.60;99.90
9157;DHT22;4613;48.392;9.998;2023-02-28T19:28:48;1.60;99.90
9157;DHT22;4613;48.392;9.998;2023-02-28T19:31:40;1.50;99.90
9157;DHT22;4613;48.392;9.998;2023-02-28T19:34:29;1.50;99.90
9157;DHT22;4613;48.392;9.998;2023-02-28T19:37:19;1.50;99.90
9157;DHT22;4613;48.392;9.998;2023-02-28T19:40:09;1.50;99.90
9157;DHT22;4613;48.392;9.998;2023-02-28T19:43:02;1.50;99.90
9157;DHT22;4613;48.392;9.998;2023-02-28T19:45:52;1.50;99.90
9157;DHT22;4613;48.392;9.998;2023-02-28T19:48:42;1.40;99.90
9157;DHT22;4613;48.392;9.998;2023-02-28T19:51:32;1.40;99.90
9157;DHT22;4613;48.392;9.998;2023-02-28T19:54:23;1.40;99.90
9157;DHT22;4613;48.392;9.998;2023-02-28T19:57:13;1.40;99.90
9157;DHT22;4613;48.392;9.998;2023-02-28T20:00:03;1.40;99.90
9157;DHT22;4613;48.392;9.998;2023-02-28T20:03:01;1.40;99.90
9157;DHT22;4613;48.392;9.998;2023-02-28T20:06:02;1.50;99.90
9157;DHT22;4613;48.392;9.998;2023-02-28T20:08:53;1.40;99.90
9157;DHT22;4613;48.392;9.998;2023-02-28T20:11:43;1.40;99.90
9157;DHT22;4613;48.392;9.998;2023-02-28T20:14:33;1.40;99.90
9157;DHT22;4613;48.392;9.998;2023-02-28T20:17:23;1.30;99.90
9157;DHT22;4613;48.392;9.998;2023-02-28T20:20:12;1.20;99.90
9157;DHT22;4613;48.392;9.998;2023-02-28T20:23:03;1.20;99.90
9157;DHT22;4613;48.392;9.998;2023-02-28T20:25:53;1.30;99.90